createdAt,value
2023-03-12T00:00:39.882Z,3.63
2023-03-12T00:01:41.870Z,2.63
2023-03-12T00:02:43.804Z,3.80
2023-03-12T00:03:46.150Z,3.00
2023-03-12T00:04:48.138Z,8.02
2023-03-12T00:05:50.059Z,6.38
2023-03-12T00:06:52.337Z,3.75
2023-03-12T00:07:54.739Z,4.22
2023-03-12T00:08:56.762Z,3.28
2023-03-12T00:09:58.700Z,2.55
2023-03-12T00:11:01.034Z,3.03
2023-03-12T00:12:03.424Z,4.10
2023-03-12T00:13:05.461Z,3.50
2023-03-12T00:14:07.386Z,4.03
2023-03-12T00:15:10.105Z,3.53
2023-03-12T00:16:15.004Z,3.25
2023-03-12T00:17:17.055Z,3.88
2023-03-12T00:18:18.969Z,1.77
2023-03-12T00:19:20.893Z,1.73
2023-03-12T00:20:23.488Z,3.13
2023-03-12T00:21:25.968Z,3.42
2023-03-12T00:22:28.289Z,1.80
2023-03-12T00:23:30.331Z,4.13
2023-03-12T00:24:32.233Z,4.65
2023-03-12T00:25:34.211Z,2.03
2023-03-12T00:26:36.119Z,2.28
2023-03-12T00:27:38.125Z,2.40
2023-03-12T00:28:40.619Z,3.25
2023-03-12T00:29:42.532Z,3.60
2023-03-12T00:30:44.478Z,4.43
2023-03-12T00:31:46.406Z,2.88
2023-03-12T00:32:48.449Z,2.35
2023-03-12T00:33:50.809Z,4.38
2023-03-12T00:34:54.530Z,3.45
2023-03-12T00:35:59.834Z,4.70
2023-03-12T00:37:01.807Z,10.50
2023-03-12T00:38:03.773Z,5.93
2023-03-12T00:39:05.772Z,2.97
2023-03-12T00:40:09.831Z,3.45
2023-03-12T00:41:11.774Z,4.15
2023-03-12T00:42:13.978Z,3.78
2023-03-12T00:43:15.929Z,2.50
2023-03-12T00:44:17.810Z,4.15
2023-03-12T00:45:19.743Z,5.70
2023-03-12T00:46:22.205Z,2.58
2023-03-12T00:47:24.156Z,4.68
2023-03-12T00:48:26.233Z,4.53
2023-03-12T00:49:28.173Z,2.45
2023-03-12T00:50:30.094Z,3.13
2023-03-12T00:51:32.025Z,3.80
2023-03-12T00:52:33.924Z,3.08
2023-03-12T00:53:36.452Z,4.20
2023-03-12T00:54:38.556Z,4.00
2023-03-12T00:55:40.465Z,5.57
2023-03-12T00:56:42.390Z,3.05
2023-03-12T00:57:44.281Z,3.53
2023-03-12T00:58:46.427Z,4.43
2023-03-12T00:59:48.305Z,2.67
2023-03-12T01:00:50.279Z,4.93
2023-03-12T01:01:52.153Z,6.68
2023-03-12T01:02:54.110Z,4.45
2023-03-12T01:03:57.247Z,5.57
2023-03-12T01:04:59.167Z,4.38
2023-03-12T01:06:01.177Z,5.68
2023-03-12T01:07:03.198Z,4.30
2023-03-12T01:08:05.581Z,4.63
2023-03-12T01:09:08.326Z,5.13
2023-03-12T01:10:12.020Z,5.85
2023-03-12T01:11:16.131Z,5.05
2023-03-12T01:12:18.065Z,4.35
2023-03-12T01:13:20.621Z,6.43
2023-03-12T01:14:22.675Z,4.38
2023-03-12T01:15:24.890Z,4.63
2023-03-12T01:16:30.292Z,4.70
2023-03-12T01:17:32.242Z,3.40
2023-03-12T01:18:34.459Z,5.18
2023-03-12T01:19:36.371Z,5.50
2023-03-12T01:20:38.581Z,3.65
2023-03-12T01:21:40.643Z,3.05
2023-03-12T01:22:42.637Z,3.80
2023-03-12T01:23:44.575Z,3.03
2023-03-12T01:24:46.556Z,5.05
2023-03-12T01:25:49.440Z,7.38
2023-03-12T01:26:51.381Z,3.28
2023-03-12T01:27:53.345Z,4.57
2023-03-12T01:28:55.278Z,4.78
2023-03-12T01:29:57.193Z,6.80
2023-03-12T01:30:59.142Z,4.93
2023-03-12T01:32:01.103Z,3.38
2023-03-12T01:33:02.965Z,4.03
2023-03-12T01:34:04.850Z,4.88
2023-03-12T01:35:07.563Z,4.13
2023-03-12T01:36:22.242Z,3.58
2023-03-12T01:37:24.478Z,2.97
2023-03-12T01:38:26.363Z,6.35
2023-03-12T01:39:28.360Z,3.17
2023-03-12T01:40:34.633Z,4.65
2023-03-12T01:41:37.082Z,5.53
2023-03-12T01:42:38.980Z,4.35
2023-03-12T01:43:41.270Z,5.75
2023-03-12T01:44:58.812Z,3.67
2023-03-12T01:46:24.129Z,5.28
2023-03-12T01:47:27.815Z,3.75
2023-03-12T01:48:43.133Z,2.80
2023-03-12T01:49:45.680Z,4.43
2023-03-12T01:50:47.611Z,2.53
2023-03-12T01:51:57.533Z,4.05
2023-03-12T01:52:59.949Z,5.03
2023-03-12T01:54:07.013Z,3.45
2023-03-12T01:55:11.895Z,3.35
2023-03-12T01:56:15.702Z,2.15
2023-03-12T01:57:29.826Z,3.03
2023-03-12T01:58:34.341Z,2.65
2023-03-12T01:59:42.466Z,2.65
2023-03-12T02:00:45.269Z,4.07
2023-03-12T02:01:48.461Z,2.10
2023-03-12T02:02:52.660Z,3.85
2023-03-12T02:03:56.497Z,4.70
2023-03-12T02:05:17.373Z,3.67
2023-03-12T02:06:23.409Z,5.47
2023-03-12T02:07:25.271Z,3.25
2023-03-12T02:08:27.456Z,3.85
2023-03-12T02:09:32.354Z,4.18
2023-03-12T02:10:34.260Z,6.18
2023-03-12T02:11:36.338Z,5.70
2023-03-12T02:12:38.264Z,5.13
2023-03-12T02:13:40.393Z,5.00
2023-03-12T02:14:43.005Z,3.05
2023-03-12T02:15:45.022Z,3.57
2023-03-12T02:16:47.061Z,2.65
2023-03-12T02:17:48.946Z,3.95
2023-03-12T02:18:52.960Z,2.75
2023-03-12T02:20:11.054Z,5.78
2023-03-12T02:21:33.830Z,4.70
2023-03-12T02:22:37.349Z,4.90
2023-03-12T02:23:46.015Z,2.78
2023-03-12T02:25:24.282Z,2.28
2023-03-12T02:26:28.690Z,3.45
2023-03-12T02:27:34.086Z,2.75
2023-03-12T02:28:42.735Z,2.20
2023-03-12T02:29:46.075Z,4.22
2023-03-12T02:30:51.618Z,3.92
2023-03-12T02:33:07.574Z,4.22
2023-03-12T02:34:10.010Z,4.22
2023-03-12T02:35:13.784Z,2.92
2023-03-12T02:36:15.754Z,7.30
2023-03-12T02:37:19.279Z,3.35
2023-03-12T02:38:42.161Z,1.65
2023-03-12T02:39:49.900Z,2.47
2023-03-12T02:40:53.072Z,4.80
2023-03-12T02:41:57.813Z,2.47
2023-03-12T02:43:00.834Z,3.15
2023-03-12T02:44:04.669Z,4.15
2023-03-12T02:45:09.238Z,3.17
2023-03-12T02:46:11.529Z,4.88
2023-03-12T02:47:13.450Z,3.38
2023-03-12T02:48:15.360Z,1.58
2023-03-12T02:49:19.600Z,2.75
2023-03-12T02:50:21.814Z,3.40
2023-03-12T02:51:23.706Z,3.95
2023-03-12T02:52:25.709Z,3.75
2023-03-12T02:53:27.640Z,5.80
2023-03-12T02:54:30.099Z,3.05
2023-03-12T02:55:31.987Z,3.10
2023-03-12T02:56:33.998Z,1.85
2023-03-12T02:57:38.774Z,4.10
2023-03-12T02:58:43.024Z,4.50
2023-03-12T02:59:44.936Z,1.80
2023-03-12T03:00:46.873Z,3.95
2023-03-12T03:02:54.180Z,5.55
2023-03-12T03:03:56.241Z,4.72
2023-03-12T03:04:58.150Z,3.15
2023-03-12T03:06:00.061Z,3.50
2023-03-12T03:10:08.471Z,2.45
2023-03-12T03:11:11.208Z,5.32
2023-03-12T03:12:13.339Z,4.00
2023-03-12T03:13:15.215Z,4.65
2023-03-12T03:14:17.955Z,3.85
2023-03-12T03:15:20.021Z,6.20
2023-03-12T03:16:22.596Z,2.55
2023-03-12T03:17:25.223Z,3.45
2023-03-12T03:18:27.245Z,5.22
2023-03-12T03:21:35.017Z,5.40
2023-03-12T03:22:37.900Z,3.00
2023-03-12T03:24:42.189Z,2.60
2023-03-12T03:25:44.075Z,1.93
2023-03-12T03:26:46.043Z,1.95
2023-03-12T03:27:47.993Z,3.33
2023-03-12T03:28:50.196Z,3.70
2023-03-12T03:29:54.762Z,3.35
2023-03-12T03:31:01.343Z,3.80
2023-03-12T03:32:03.507Z,3.80
2023-03-12T03:33:05.396Z,4.30
2023-03-12T03:34:07.279Z,3.70
2023-03-12T03:35:09.900Z,2.17
2023-03-12T03:36:14.939Z,4.28
2023-03-12T03:37:16.916Z,4.30
2023-03-12T03:38:18.999Z,5.97
2023-03-12T03:39:21.060Z,3.28
2023-03-12T03:41:27.019Z,2.97
2023-03-12T03:42:28.922Z,4.25
2023-03-12T03:43:30.841Z,4.15
2023-03-12T03:44:32.692Z,3.13
2023-03-12T03:45:34.566Z,3.17
2023-03-12T03:46:36.618Z,3.00
2023-03-12T03:47:38.604Z,4.70
2023-03-12T03:48:41.322Z,4.03
2023-03-12T03:49:43.168Z,4.80
2023-03-12T03:50:45.023Z,5.93
2023-03-12T03:51:47.155Z,5.53
2023-03-12T03:52:49.102Z,2.70
2023-03-12T03:53:51.022Z,4.85
2023-03-12T03:54:57.009Z,4.85
2023-03-12T03:55:59.032Z,4.60
2023-03-12T03:57:01.524Z,4.93
2023-03-12T03:58:03.631Z,12.02
2023-03-12T03:59:05.801Z,6.05
2023-03-12T04:00:09.961Z,3.70
2023-03-12T04:01:14.291Z,2.97
2023-03-12T04:02:16.261Z,4.00
2023-03-12T04:03:18.417Z,3.42
2023-03-12T04:04:20.284Z,3.45
2023-03-12T04:05:22.248Z,4.75
2023-03-12T04:06:24.135Z,4.47
2023-03-12T04:09:30.995Z,3.20
2023-03-12T04:10:32.877Z,5.53
2023-03-12T04:11:34.843Z,4.50
2023-03-12T04:13:38.827Z,5.85
2023-03-12T04:14:43.676Z,7.00
2023-03-12T04:15:50.505Z,9.53
2023-03-12T04:16:52.356Z,4.53
2023-03-12T04:17:54.412Z,5.10
2023-03-12T04:18:56.456Z,8.57
2023-03-12T04:19:58.381Z,5.55
2023-03-12T04:21:00.295Z,4.30
2023-03-12T04:22:02.342Z,5.90
2023-03-12T04:23:04.308Z,3.85
2023-03-12T04:24:08.163Z,6.32
2023-03-12T04:25:10.973Z,3.83
2023-03-12T04:26:12.972Z,7.75
2023-03-12T04:27:14.915Z,4.88
2023-03-12T04:28:16.853Z,5.55
2023-03-12T04:29:19.668Z,8.27
2023-03-12T04:30:21.787Z,5.35
2023-03-12T04:31:23.861Z,6.17
2023-03-12T04:32:26.028Z,5.50
2023-03-12T04:33:29.723Z,7.00
2023-03-12T04:34:31.807Z,6.45
2023-03-12T04:35:33.862Z,6.10
2023-03-12T04:37:37.630Z,5.83
2023-03-12T04:38:39.533Z,4.97
2023-03-12T04:39:42.339Z,7.35
2023-03-12T04:40:44.192Z,4.93
2023-03-12T04:41:46.402Z,7.97
2023-03-12T04:42:48.634Z,4.20
2023-03-12T04:43:50.613Z,4.35
2023-03-12T04:44:52.799Z,6.35
2023-03-12T04:45:55.662Z,4.68
2023-03-12T04:46:57.622Z,4.72
2023-03-12T04:47:59.550Z,6.72
2023-03-12T04:49:02.995Z,3.85
2023-03-12T04:50:05.381Z,5.28
2023-03-12T04:51:07.325Z,6.35
2023-03-12T04:52:09.227Z,7.10
2023-03-12T04:53:11.763Z,7.57
2023-03-12T04:54:13.755Z,6.88
2023-03-12T04:55:15.721Z,7.57
2023-03-12T04:56:17.647Z,6.25
2023-03-12T04:57:19.889Z,5.30
2023-03-12T04:58:22.133Z,5.50
2023-03-12T04:59:24.041Z,5.10
2023-03-12T05:00:27.067Z,10.32
2023-03-12T05:01:32.222Z,7.00
2023-03-12T05:02:34.169Z,5.75
2023-03-12T05:03:36.112Z,6.32
2023-03-12T05:04:38.148Z,6.03
2023-03-12T05:05:40.090Z,4.68
2023-03-12T05:06:42.038Z,5.97
2023-03-12T05:07:43.946Z,5.07
2023-03-12T05:08:46.622Z,5.80
2023-03-12T05:09:48.575Z,5.03
2023-03-12T05:10:50.478Z,6.85
2023-03-12T05:11:52.372Z,7.65
2023-03-12T05:12:54.359Z,8.07
2023-03-12T05:13:56.331Z,5.55
2023-03-12T05:14:58.243Z,7.78
2023-03-12T05:16:00.179Z,7.88
2023-03-12T05:17:02.170Z,11.75
2023-03-12T05:18:04.117Z,7.03
2023-03-12T05:19:06.583Z,7.20
2023-03-12T05:20:09.368Z,10.52
2023-03-12T05:21:19.936Z,12.02
2023-03-12T05:22:21.849Z,11.57
2023-03-12T05:23:23.726Z,19.63
2023-03-12T05:24:25.689Z,16.85
2023-03-12T05:25:27.786Z,9.80
2023-03-12T05:26:32.534Z,8.68
2023-03-12T05:27:34.625Z,8.68
2023-03-12T05:28:36.527Z,9.55
2023-03-12T05:29:38.442Z,8.27
2023-03-12T05:30:40.836Z,14.10
2023-03-12T05:32:45.174Z,8.30
2023-03-12T05:33:48.555Z,9.57
2023-03-12T05:34:51.291Z,12.10
2023-03-12T05:35:53.451Z,13.95
2023-03-12T05:37:57.166Z,12.65
2023-03-12T05:38:59.047Z,9.75
2023-03-12T05:40:00.949Z,6.65
2023-03-12T05:42:06.414Z,9.13
2023-03-12T05:44:13.680Z,9.52
2023-03-12T05:45:19.757Z,11.35
2023-03-12T05:46:22.060Z,7.90
2023-03-12T05:47:24.029Z,9.18
2023-03-12T05:48:26.343Z,11.05
2023-03-12T05:49:28.300Z,9.75
2023-03-12T05:50:30.293Z,14.98
2023-03-12T05:51:32.208Z,8.32
2023-03-12T05:52:34.078Z,9.38
2023-03-12T06:20:29.019Z,11.23
2023-03-12T06:21:33.649Z,8.98
2023-03-12T06:22:35.878Z,11.52
2023-03-12T06:23:38.661Z,10.57
2023-03-12T06:24:42.657Z,7.53
2023-03-12T06:25:45.582Z,7.60
2023-03-12T06:26:47.485Z,12.25
2023-03-12T06:27:49.459Z,9.43
2023-03-12T06:28:52.217Z,9.27
2023-03-12T06:30:01.434Z,12.82
2023-03-12T06:31:05.027Z,9.57
2023-03-12T06:32:07.631Z,7.70
2023-03-12T06:33:09.649Z,11.32
2023-03-12T06:34:11.738Z,9.77
2023-03-12T06:35:14.023Z,8.63
2023-03-12T06:36:16.184Z,8.73
2023-03-12T06:37:18.194Z,10.93
2023-03-12T06:38:20.090Z,11.77
2023-03-12T06:39:21.961Z,14.75
2023-03-12T06:40:24.049Z,11.45
2023-03-12T06:41:25.992Z,14.80
2023-03-12T06:42:28.218Z,11.00
2023-03-12T06:43:32.939Z,10.48
2023-03-12T06:44:42.233Z,11.88
2023-03-12T06:45:44.113Z,12.80
2023-03-12T06:46:48.514Z,11.27
2023-03-12T06:47:52.752Z,10.45
2023-03-12T06:48:54.977Z,9.57
2023-03-12T06:49:56.867Z,12.82
2023-03-12T06:50:58.755Z,7.30
2023-03-12T06:52:00.701Z,13.65
2023-03-12T06:53:02.568Z,9.25
2023-03-12T06:54:05.030Z,8.45
2023-03-12T06:55:07.265Z,9.57
2023-03-12T06:56:09.826Z,9.23
2023-03-12T06:57:11.848Z,13.55
2023-03-12T06:58:14.014Z,11.80
2023-03-12T06:59:16.134Z,9.30
2023-03-12T07:00:18.372Z,11.20
2023-03-12T07:01:20.375Z,9.38
2023-03-12T07:02:22.367Z,10.45
2023-03-12T07:03:24.643Z,14.73
2023-03-12T07:04:26.690Z,10.77
2023-03-12T07:05:30.175Z,11.90
2023-03-12T07:06:32.211Z,10.82
2023-03-12T07:07:34.256Z,10.45
2023-03-12T07:08:36.146Z,10.30
2023-03-12T07:09:38.129Z,13.00
2023-03-12T07:10:40.416Z,8.77
2023-03-12T07:11:42.412Z,9.20
2023-03-12T07:12:44.937Z,8.63
2023-03-12T07:13:47.516Z,8.85
2023-03-12T07:14:49.619Z,10.40
2023-03-12T07:15:51.623Z,10.93
2023-03-12T07:16:53.560Z,12.93
2023-03-12T07:17:55.510Z,11.43
2023-03-12T07:18:57.396Z,13.82
2023-03-12T07:19:59.425Z,10.97
2023-03-12T07:21:01.497Z,10.07
2023-03-12T07:22:03.435Z,7.18
2023-03-12T07:23:05.595Z,8.43
2023-03-12T07:24:08.384Z,8.70
2023-03-12T07:25:10.509Z,7.50
2023-03-12T07:26:12.429Z,9.43
2023-03-12T07:27:14.334Z,8.95
2023-03-12T07:28:17.398Z,14.35
2023-03-12T07:29:19.275Z,11.20
2023-03-12T07:30:22.099Z,8.77
2023-03-12T07:31:23.989Z,9.32
2023-03-12T07:32:26.004Z,9.18
2023-03-12T07:33:27.971Z,12.63
2023-03-12T07:34:29.992Z,11.63
2023-03-12T07:35:32.971Z,10.13
2023-03-12T07:36:35.067Z,9.30
2023-03-12T07:37:37.044Z,11.20
2023-03-12T07:38:38.941Z,9.60
2023-03-12T07:39:40.989Z,15.38
2023-03-12T07:40:43.245Z,13.82
2023-03-12T07:41:45.310Z,12.80
2023-03-12T07:42:47.166Z,20.20
2023-03-12T07:43:49.499Z,14.13
2023-03-12T07:44:51.480Z,12.68
2023-03-12T07:45:53.449Z,11.25
2023-03-12T07:46:55.532Z,12.70
2023-03-12T07:47:57.991Z,10.52
2023-03-12T07:48:59.909Z,15.25
2023-03-12T07:50:02.144Z,21.67
2023-03-12T07:51:04.572Z,14.52
2023-03-12T07:52:10.044Z,16.08
2023-03-12T07:53:12.009Z,13.65
2023-03-12T07:54:13.995Z,13.55
2023-03-12T07:55:16.566Z,15.35
2023-03-12T07:56:18.792Z,19.05
2023-03-12T10:09:56.200Z,10.10
2023-03-12T10:11:20.815Z,13.02
2023-03-12T10:12:40.276Z,8.23
2023-03-12T10:14:00.294Z,4.80
2023-03-12T10:15:15.554Z,5.70
2023-03-12T10:16:25.877Z,4.55
2023-03-12T10:17:40.105Z,4.97
2023-03-12T10:19:05.092Z,8.25
2023-03-12T10:20:24.909Z,14.85
2023-03-12T10:21:34.924Z,3.40
2023-03-12T10:23:07.534Z,4.85
2023-03-12T10:24:12.193Z,4.47
2023-03-12T10:25:16.795Z,7.05
2023-03-12T10:26:47.421Z,7.57
2023-03-12T10:27:50.594Z,4.85
2023-03-12T10:29:02.382Z,5.90
2023-03-12T10:30:25.809Z,3.72
2023-03-12T10:31:54.459Z,5.20
2023-03-12T10:33:00.135Z,4.35
2023-03-12T10:34:09.236Z,3.05
2023-03-12T10:35:15.742Z,4.68
2023-03-12T10:36:21.304Z,4.70
2023-03-12T10:37:37.665Z,6.88
2023-03-12T11:11:48.091Z,2.92
2023-03-12T11:13:03.531Z,3.45
2023-03-12T11:14:15.956Z,1.75
2023-03-12T11:15:29.287Z,2.72
2023-03-12T11:16:32.293Z,5.00
2023-03-12T11:17:34.428Z,2.20
2023-03-12T11:18:37.766Z,2.28
2023-03-12T11:19:40.557Z,2.80
2023-03-12T11:20:42.956Z,5.30
2023-03-12T11:21:57.597Z,2.60
2023-03-12T11:23:21.926Z,3.53
2023-03-12T11:24:23.975Z,1.52
2023-03-12T11:25:29.031Z,4.90
2023-03-12T11:26:44.600Z,4.35
2023-03-12T11:27:50.973Z,5.10
2023-03-12T11:29:02.459Z,4.32
2023-03-12T11:30:10.659Z,3.20
2023-03-12T11:31:41.505Z,2.92
2023-03-12T11:32:49.818Z,1.42
2023-03-12T11:33:54.743Z,1.83
2023-03-12T11:34:56.848Z,2.08
2023-03-12T11:36:09.307Z,0.93
2023-03-12T11:37:36.907Z,3.05
2023-03-12T11:38:42.309Z,1.73
2023-03-12T11:39:59.286Z,3.00
2023-03-12T11:41:19.760Z,3.85
2023-03-12T11:42:56.488Z,4.68
2023-03-12T11:44:23.268Z,2.45
2023-03-12T11:45:41.110Z,3.40
2023-03-12T11:46:48.915Z,1.60
2023-03-12T11:48:06.204Z,1.05
2023-03-12T11:49:24.076Z,0.98
2023-03-12T11:50:47.153Z,3.03
2023-03-12T11:51:58.080Z,1.50
2023-03-12T11:53:29.296Z,1.55
2023-03-12T11:55:16.348Z,1.25
2023-03-12T11:56:21.217Z,3.55
2023-03-12T11:57:51.332Z,3.80
2023-03-12T11:59:24.873Z,2.53
2023-03-12T12:00:42.936Z,2.28
2023-03-12T12:02:16.138Z,1.98
2023-03-12T12:03:30.830Z,2.63
2023-03-12T12:05:14.031Z,4.03
2023-03-12T12:06:40.268Z,3.75
2023-03-12T12:08:03.366Z,3.72
2023-03-12T12:09:19.368Z,2.35
2023-03-12T12:10:44.905Z,1.88
2023-03-12T12:11:57.399Z,1.25
2023-03-12T12:13:06.552Z,3.03
2023-03-12T12:14:24.171Z,3.03
2023-03-12T12:16:08.664Z,2.75
2023-03-12T12:17:34.808Z,1.48
2023-03-12T12:18:57.846Z,1.95
2023-03-12T12:20:09.359Z,2.33
2023-03-12T12:21:35.296Z,1.60
2023-03-12T12:22:56.183Z,0.73
2023-03-12T12:24:12.764Z,2.55
2023-03-12T12:25:36.819Z,1.08
2023-03-12T12:26:49.927Z,3.97
2023-03-12T12:27:54.661Z,2.38
2023-03-12T12:29:04.326Z,2.13
2023-03-12T12:30:30.797Z,2.08
2023-03-12T12:31:46.462Z,2.17
2023-03-12T12:32:48.500Z,0.90
2023-03-12T12:34:31.385Z,4.85
2023-03-12T12:35:37.897Z,6.53
2023-03-12T12:36:40.039Z,4.55
2023-03-12T12:38:04.972Z,4.78
2023-03-12T12:39:36.813Z,0.77
2023-03-12T12:40:41.542Z,2.35
2023-03-12T12:41:50.027Z,2.78
2023-03-12T12:43:19.815Z,1.95
2023-03-12T12:44:32.224Z,1.75
2023-03-12T12:45:38.769Z,1.67
2023-03-12T12:46:48.028Z,2.50
2023-03-12T12:48:15.685Z,3.30
2023-03-12T12:49:41.072Z,3.13
2023-03-12T12:50:44.648Z,1.58
2023-03-12T12:51:58.420Z,0.70
2023-03-12T12:53:22.984Z,2.42
2023-03-12T12:54:38.582Z,1.48
2023-03-12T12:56:15.300Z,2.20
2023-03-12T12:57:23.426Z,3.40
2023-03-12T12:58:44.126Z,4.10
2023-03-12T13:00:01.169Z,2.70
2023-03-12T13:01:03.542Z,2.42
2023-03-12T13:02:17.047Z,1.48
2023-03-12T13:03:21.715Z,4.25
2023-03-12T13:04:36.592Z,4.72
2023-03-12T13:05:38.481Z,4.03
2023-03-12T13:07:03.841Z,1.50
2023-03-12T13:08:10.549Z,3.42
2023-03-12T13:09:21.247Z,4.57
2023-03-12T13:10:35.243Z,1.02
2023-03-12T13:11:47.145Z,1.88
2023-03-12T13:12:56.292Z,1.25
2023-03-12T13:14:04.071Z,1.58
2023-03-12T13:15:33.032Z,0.60
2023-03-12T13:16:44.157Z,1.10
2023-03-12T13:17:52.011Z,1.50
2023-03-12T13:18:59.356Z,0.80
2023-03-12T13:20:12.115Z,2.70
2023-03-12T13:21:24.917Z,7.28
2023-03-12T13:22:37.886Z,3.70
2023-03-12T13:23:48.316Z,3.17
2023-03-12T13:25:11.076Z,3.90
2023-03-12T13:26:25.053Z,3.83
2023-03-12T13:27:36.194Z,1.10
2023-03-12T13:28:56.882Z,5.53
2023-03-12T13:30:32.819Z,1.60
2023-03-12T13:31:36.504Z,4.30
2023-03-12T13:32:58.458Z,3.47
2023-03-12T13:34:20.611Z,2.92
2023-03-12T13:35:22.579Z,5.50
2023-03-12T13:36:28.377Z,5.57
2023-03-12T13:37:52.322Z,3.25
2023-03-12T13:39:17.443Z,6.45
2023-03-12T13:40:31.181Z,2.28
2023-03-12T13:41:40.335Z,2.97
2023-03-12T13:42:42.278Z,2.13
2023-03-12T13:43:50.147Z,1.67
2023-03-12T13:44:53.542Z,2.35
2023-03-12T13:46:21.021Z,2.28
2023-03-12T13:47:44.232Z,2.28
2023-03-12T13:48:50.967Z,2.92
2023-03-12T13:49:59.435Z,1.10
2023-03-12T13:51:23.266Z,1.52
2023-03-12T13:52:37.617Z,3.30
2023-03-12T13:53:40.869Z,1.05
2023-03-12T13:54:47.781Z,1.40
2023-03-12T13:56:08.603Z,3.45
2023-03-12T13:57:43.355Z,2.10
2023-03-12T13:58:54.461Z,8.40
2023-03-12T13:59:57.700Z,3.88
2023-03-12T14:01:05.883Z,3.20
2023-03-12T14:02:24.675Z,1.92
2023-03-12T14:03:29.671Z,3.80
2023-03-12T14:04:41.094Z,2.75
2023-03-12T14:05:50.648Z,2.53
2023-03-12T14:07:05.691Z,1.85
2023-03-12T14:08:16.181Z,4.28
2023-03-12T14:09:29.607Z,1.27
2023-03-12T14:10:47.499Z,1.40
2023-03-12T14:12:04.596Z,1.23
2023-03-12T14:13:24.635Z,2.45
2023-03-12T14:14:44.302Z,3.30
2023-03-12T14:16:10.656Z,5.68
2023-03-12T14:17:19.169Z,4.88
2023-03-12T14:18:27.338Z,7.63
2023-03-12T14:19:31.593Z,6.00
2023-03-12T14:20:38.464Z,7.85
2023-03-12T14:21:43.402Z,2.88
2023-03-12T14:22:52.609Z,4.68
2023-03-12T14:23:57.769Z,2.45
2023-03-12T14:25:05.197Z,2.72
2023-03-12T14:26:08.581Z,2.10
2023-03-12T14:27:22.187Z,3.75
2023-03-12T14:28:25.719Z,5.10
2023-03-12T14:29:29.910Z,1.88
2023-03-12T14:30:48.773Z,2.00
2023-03-12T14:31:52.272Z,1.75
2023-03-12T14:32:59.565Z,3.70
2023-03-12T14:34:14.741Z,2.20
2023-03-12T14:35:29.042Z,3.28
2023-03-12T14:36:42.791Z,2.42
2023-03-12T14:38:10.188Z,1.08
2023-03-12T14:39:41.867Z,1.30
2023-03-12T14:41:00.497Z,2.28
2023-03-12T14:42:05.456Z,1.00
2023-03-12T14:43:25.124Z,1.90
2023-03-12T14:44:30.821Z,1.38
2023-03-12T14:45:39.544Z,2.67
2023-03-12T14:46:55.739Z,2.10
2023-03-12T14:47:59.162Z,2.83
2023-03-12T14:49:01.276Z,4.75
2023-03-12T14:50:04.300Z,1.00
2023-03-12T14:51:08.118Z,1.15
2023-03-12T14:52:15.006Z,2.97
2023-03-12T14:53:23.793Z,2.05
2023-03-12T14:54:28.342Z,2.35
2023-03-12T14:55:30.436Z,2.05
2023-03-12T14:56:35.461Z,2.65
2023-03-12T14:57:37.428Z,2.83
2023-03-12T14:58:46.571Z,1.55
2023-03-12T15:00:01.897Z,2.58
2023-03-12T15:01:07.038Z,1.70
2023-03-12T15:02:14.918Z,1.38
2023-03-12T15:03:17.798Z,2.05
2023-03-12T15:04:23.251Z,3.35
2023-03-12T15:05:26.709Z,1.63
2023-03-12T15:06:30.475Z,2.95
2023-03-12T15:07:39.589Z,2.92
2023-03-12T15:08:44.501Z,2.67
2023-03-12T15:09:52.202Z,1.95
2023-03-12T15:10:58.695Z,2.15
2023-03-12T15:12:06.864Z,1.02
2023-03-12T15:13:13.003Z,1.85
2023-03-12T15:14:16.623Z,2.97
2023-03-12T15:15:46.806Z,1.80
2023-03-12T15:16:49.442Z,3.20
2023-03-12T15:17:51.788Z,2.25
2023-03-12T15:18:54.105Z,2.78
2023-03-12T15:19:57.312Z,4.07
2023-03-12T15:21:03.390Z,3.22
2023-03-12T15:22:07.413Z,2.75
2023-03-12T15:23:13.004Z,3.03
2023-03-12T15:24:15.165Z,2.42
2023-03-12T15:25:28.950Z,4.28
2023-03-12T15:26:34.833Z,1.75
2023-03-12T15:27:36.889Z,4.68
2023-03-12T15:28:40.067Z,2.65
2023-03-12T15:29:42.206Z,3.65
2023-03-12T15:30:44.628Z,2.08
2023-03-12T15:31:47.959Z,1.63
2023-03-12T15:33:08.600Z,1.17
2023-03-12T15:34:13.415Z,0.90
2023-03-12T15:35:15.638Z,1.15
2023-03-12T15:36:25.538Z,1.30
2023-03-12T15:37:38.001Z,1.42
2023-03-12T15:38:46.323Z,2.30
2023-03-12T15:39:52.215Z,4.38
2023-03-12T15:40:58.569Z,2.38
2023-03-12T15:42:09.406Z,3.47
2023-03-12T15:43:18.110Z,3.40
2023-03-12T15:44:23.716Z,2.13
2023-03-12T15:45:32.130Z,2.63
2023-03-12T15:46:34.851Z,2.97
2023-03-12T15:47:40.742Z,4.13
2023-03-12T15:48:50.407Z,3.80
2023-03-12T15:49:59.582Z,3.60
2023-03-12T15:51:02.162Z,3.58
2023-03-12T15:52:27.050Z,3.33
2023-03-12T15:53:34.296Z,4.60
2023-03-12T15:54:40.573Z,3.05
2023-03-12T15:55:43.522Z,2.22
2023-03-12T15:56:45.923Z,1.90
2023-03-12T15:57:52.912Z,2.75
2023-03-12T15:59:20.290Z,4.28
2023-03-12T16:00:28.450Z,2.20
2023-03-12T16:01:30.726Z,2.38
2023-03-12T16:02:52.590Z,4.78
2023-03-12T16:03:55.437Z,4.22
2023-03-12T16:05:00.610Z,5.75
2023-03-12T16:06:07.650Z,5.05
2023-03-12T16:07:13.319Z,5.68
2023-03-12T16:08:18.316Z,4.80
2023-03-12T16:09:24.678Z,5.57
2023-03-12T16:10:28.185Z,8.57
2023-03-12T16:11:36.027Z,4.43
2023-03-12T16:12:38.405Z,7.10
2023-03-12T16:13:42.084Z,9.25
2023-03-12T16:14:44.877Z,7.38
2023-03-12T16:15:48.206Z,13.70
2023-03-12T16:16:51.376Z,10.40
2023-03-12T16:17:53.446Z,8.95
2023-03-12T16:18:55.497Z,8.40
2023-03-12T16:19:57.512Z,9.68
2023-03-12T16:20:59.414Z,9.15
2023-03-12T16:22:01.522Z,9.73
2023-03-12T16:23:03.610Z,9.75
2023-03-12T16:24:05.738Z,8.52
2023-03-12T16:25:10.647Z,9.77
2023-03-12T16:26:15.433Z,9.30
2023-03-12T16:27:23.753Z,9.07
2023-03-12T16:28:35.656Z,11.63
2023-03-12T16:29:38.719Z,13.57
2023-03-12T16:30:41.270Z,12.15
2023-03-12T16:31:43.223Z,14.07
2023-03-12T16:32:45.390Z,11.57
2023-03-12T16:33:47.895Z,14.82
2023-03-12T16:34:50.123Z,13.95
2023-03-12T16:35:52.787Z,16.25
2023-03-12T16:36:54.975Z,14.07
2023-03-12T16:37:57.958Z,12.27
2023-03-12T16:39:04.324Z,14.90
2023-03-12T16:40:07.067Z,19.45
2023-03-12T16:41:16.125Z,15.63
2023-03-12T16:42:19.605Z,14.63
2023-03-12T16:43:24.182Z,18.70
2023-03-12T16:44:31.033Z,20.50
2023-03-12T16:45:37.135Z,22.58
2023-03-12T16:46:39.583Z,17.85
2023-03-12T16:47:42.500Z,17.02
2023-03-12T16:48:44.656Z,12.98
2023-03-12T16:49:46.770Z,11.05
2023-03-12T16:50:51.930Z,11.27
2023-03-12T16:51:54.214Z,12.07
2023-03-12T16:52:56.645Z,13.07
2023-03-12T16:54:09.618Z,12.00
2023-03-12T16:55:15.073Z,12.40
2023-03-12T16:56:22.961Z,15.32
2023-03-12T16:57:35.011Z,9.48
2023-03-12T16:58:39.592Z,11.65
2023-03-12T16:59:41.757Z,9.02
2023-03-12T17:00:44.369Z,15.75
2023-03-12T17:01:46.691Z,8.98
2023-03-12T17:02:49.975Z,7.75
2023-03-12T17:03:54.251Z,7.68
2023-03-12T17:04:56.726Z,9.35
2023-03-12T17:05:59.154Z,10.70
2023-03-12T17:07:01.263Z,9.43
2023-03-12T17:08:03.648Z,8.02
2023-03-12T17:09:08.421Z,11.75
2023-03-12T17:10:11.927Z,11.18
2023-03-12T17:11:30.330Z,10.73
2023-03-12T17:12:36.613Z,10.73
2023-03-12T17:13:38.868Z,9.73
2023-03-12T17:14:41.096Z,10.65
2023-03-12T17:15:44.173Z,11.32
2023-03-12T17:16:46.216Z,10.98
2023-03-12T17:17:50.042Z,12.07
2023-03-12T17:18:53.222Z,12.57
2023-03-12T17:19:55.709Z,12.00
2023-03-12T17:20:58.165Z,12.57
2023-03-12T17:22:01.229Z,14.68
2023-03-12T17:23:04.823Z,11.70
2023-03-12T17:24:07.247Z,16.83
2023-03-12T17:25:22.487Z,13.73
2023-03-12T17:26:24.672Z,14.68
2023-03-12T17:27:26.716Z,13.73
2023-03-12T17:28:28.861Z,11.18
2023-03-12T17:29:30.977Z,14.45
2023-03-12T17:30:34.479Z,17.58
2023-03-12T17:31:37.722Z,15.60
2023-03-12T17:32:40.017Z,15.30
2023-03-12T17:33:43.371Z,11.02
2023-03-12T17:34:48.104Z,12.98
2023-03-12T17:36:09.535Z,13.70
2023-03-12T17:38:14.331Z,13.02
2023-03-12T17:39:16.469Z,15.25
2023-03-12T17:40:18.834Z,13.98
2023-03-12T17:41:26.466Z,15.93
2023-03-12T17:42:31.419Z,13.65
2023-03-12T17:43:35.059Z,14.48
2023-03-12T17:44:39.108Z,15.45
2023-03-12T17:45:43.066Z,15.82
2023-03-12T17:46:58.420Z,12.73
2023-03-12T17:48:01.462Z,15.77
2023-03-12T17:49:04.123Z,14.50
2023-03-12T17:50:07.517Z,12.00
2023-03-12T17:51:11.096Z,15.68
2023-03-12T17:52:13.765Z,13.73
2023-03-12T17:53:18.049Z,14.95
2023-03-12T17:54:20.278Z,15.95
2023-03-12T17:55:22.425Z,13.98
2023-03-12T17:56:24.664Z,12.13
2023-03-12T17:57:27.230Z,12.95
2023-03-12T17:58:29.279Z,9.80
2023-03-12T17:59:31.583Z,11.77
2023-03-12T18:00:34.139Z,8.90
2023-03-12T18:01:36.252Z,8.07
2023-03-12T18:02:41.663Z,11.98
2023-03-12T18:03:44.535Z,10.88
2023-03-12T18:04:47.091Z,8.05
2023-03-12T18:05:50.910Z,10.75
2023-03-12T18:06:53.907Z,6.57
2023-03-12T18:07:55.950Z,14.63
2023-03-12T18:08:57.980Z,12.50
2023-03-12T18:10:00.096Z,10.25
2023-03-12T18:11:03.362Z,5.60